sensor_id;sensor_type;location;lat;lon;timestamp;P1;durP1;ratioP1;P2;durP2;ratioP2
75135;SDS011;63707;52.212;9.540;2023-11-21T00:02:12;60.40;;;21.98;;
75135;SDS011;63707;52.212;9.540;2023-11-21T00:04:37;56.78;;;21.25;;
75135;SDS011;63707;52.212;9.540;2023-11-21T00:07:03;71.60;;;23.38;;
75135;SDS011;63707;52.212;9.540;2023-11-21T00:09:29;57.45;;;21.75;;
75135;SDS011;63707;52.212;9.540;2023-11-21T00:11:54;62.70;;;23.30;;
75135;SDS011;63707;52.212;9.540;2023-11-21T00:14:20;63.15;;;22.70;;
75135;SDS011;63707;52.212;9.540;2023-11-21T00:16:45;64.85;;;22.60;;
75135;SDS011;63707;52.212;9.540;2023-11-21T00:19:12;65.40;;;21.88;;
75135;SDS011;63707;52.212;9.540;2023-11-21T00:21:38;57.25;;;21.67;;
75135;SDS011;63707;52.212;9.540;2023-11-21T00:24:03;67.75;;;22.95;;
75135;SDS011;63707;52.212;9.540;2023-11-21T00:26:29;59.25;;;20.73;;
75135;SDS011;63707;52.212;9.540;2023-11-21T00:29:01;63.47;;;21.38;;
75135;SDS011;63707;52.212;9.540;2023-11-21T00:31:27;68.07;;;23.88;;
75135;SDS011;63707;52.212;9.540;2023-11-21T00:33:52;72.03;;;23.13;;
75135;SDS011;63707;52.212;9.540;2023-11-21T00:36:20;63.88;;;22.60;;
75135;SDS011;63707;52.212;9.540;2023-11-21T00:38:45;57.92;;;22.23;;
75135;SDS011;63707;52.212;9.540;2023-11-21T00:41:13;71.07;;;22.90;;
75135;SDS011;63707;52.212;9.540;2023-11-21T00:43:38;70.32;;;24.05;;
75135;SDS011;63707;52.212;9.540;2023-11-21T00:46:04;61.45;;;23.60;;
75135;SDS011;63707;52.212;9.540;2023-11-21T00:48:32;65.15;;;23.08;;
75135;SDS011;63707;52.212;9.540;2023-11-21T00:50:57;60.38;;;22.50;;
75135;SDS011;63707;52.212;9.540;2023-11-21T00:53:24;67.90;;;23.02;;
75135;SDS011;63707;52.212;9.540;2023-11-21T00:55:50;65.30;;;24.35;;
75135;SDS011;63707;52.212;9.540;2023-11-21T00:58:17;65.30;;;24.17;;
75135;SDS011;63707;52.212;9.540;2023-11-21T01:00:42;61.13;;;22.35;;
75135;SDS011;63707;52.212;9.540;2023-11-21T01:03:08;64.90;;;22.50;;
75135;SDS011;63707;52.212;9.540;2023-11-21T01:05:34;65.13;;;23.15;;
75135;SDS011;63707;52.212;9.540;2023-11-21T01:08:00;66.25;;;22.60;;
75135;SDS011;63707;52.212;9.540;2023-11-21T01:10:27;60.78;;;22.20;;
75135;SDS011;63707;52.212;9.540;2023-11-21T01:12:52;61.83;;;23.60;;
75135;SDS011;63707;52.212;9.540;2023-11-21T01:15:17;69.75;;;24.63;;
75135;SDS011;63707;52.212;9.540;2023-11-21T01:17:43;69.95;;;23.50;;
75135;SDS011;63707;52.212;9.540;2023-11-21T01:20:09;65.78;;;24.58;;
75135;SDS011;63707;52.212;9.540;2023-11-21T01:22:38;70.85;;;23.88;;
75135;SDS011;63707;52.212;9.540;2023-11-21T01:25:04;67.63;;;24.17;;
75135;SDS011;63707;52.212;9.540;2023-11-21T01:27:33;69.20;;;22.90;;
75135;SDS011;63707;52.212;9.540;2023-11-21T01:29:59;64.63;;;22.90;;
75135;SDS011;63707;52.212;9.540;2023-11-21T01:32:25;74.47;;;23.88;;
75135;SDS011;63707;52.212;9.540;2023-11-21T01:34:50;65.55;;;23.60;;
75135;SDS011;63707;52.212;9.540;2023-11-21T01:37:16;73.13;;;24.42;;
75135;SDS011;63707;52.212;9.540;2023-11-21T01:39:42;66.70;;;25.33;;
75135;SDS011;63707;52.212;9.540;2023-11-21T01:42:09;70.97;;;23.80;;
75135;SDS011;63707;52.212;9.540;2023-11-21T01:44:37;76.72;;;23.05;;
75135;SDS011;63707;52.212;9.540;2023-11-21T01:47:03;70.18;;;23.55;;
75135;SDS011;63707;52.212;9.540;2023-11-21T01:49:30;73.30;;;23.35;;
75135;SDS011;63707;52.212;9.540;2023-11-21T01:51:55;66.97;;;23.80;;
75135;SDS011;63707;52.212;9.540;2023-11-21T01:54:21;64.00;;;22.42;;
75135;SDS011;63707;52.212;9.540;2023-11-21T01:56:47;66.93;;;23.33;;
75135;SDS011;63707;52.212;9.540;2023-11-21T01:59:14;77.57;;;23.45;;
75135;SDS011;63707;52.212;9.540;2023-11-21T02:01:46;68.85;;;23.50;;
75135;SDS011;63707;52.212;9.540;2023-11-21T02:04:12;74.03;;;24.48;;
75135;SDS011;63707;52.212;9.540;2023-11-21T02:06:37;72.97;;;23.98;;
75135;SDS011;63707;52.212;9.540;2023-11-21T02:09:04;75.22;;;23.40;;
75135;SDS011;63707;52.212;9.540;2023-11-21T02:11:29;73.15;;;23.75;;
75135;SDS011;63707;52.212;9.540;2023-11-21T02:13:55;71.18;;;23.88;;
75135;SDS011;63707;52.212;9.540;2023-11-21T02:16:21;80.28;;;24.58;;
75135;SDS011;63707;52.212;9.540;2023-11-21T02:18:48;80.22;;;24.30;;
75135;SDS011;63707;52.212;9.540;2023-11-21T02:21:13;74.28;;;24.63;;
75135;SDS011;63707;52.212;9.540;2023-11-21T02:23:40;71.78;;;23.38;;
75135;SDS011;63707;52.212;9.540;2023-11-21T02:26:09;69.88;;;23.90;;
75135;SDS011;63707;52.212;9.540;2023-11-21T02:28:35;79.38;;;25.08;;
75135;SDS011;63707;52.212;9.540;2023-11-21T02:31:00;81.57;;;25.75;;
75135;SDS011;63707;52.212;9.540;2023-11-21T02:33:28;80.90;;;25.13;;
75135;SDS011;63707;52.212;9.540;2023-11-21T02:35:53;88.43;;;26.73;;
75135;SDS011;63707;52.212;9.540;2023-11-21T02:38:20;69.13;;;23.80;;
75135;SDS011;63707;52.212;9.540;2023-11-21T02:40:47;82.55;;;27.00;;
75135;SDS011;63707;52.212;9.540;2023-11-21T02:43:14;88.13;;;25.73;;
75135;SDS011;63707;52.212;9.540;2023-11-21T02:45:39;76.25;;;24.25;;
75135;SDS011;63707;52.212;9.540;2023-11-21T02:48:06;70.15;;;24.13;;
75135;SDS011;63707;52.212;9.540;2023-11-21T02:50:32;72.45;;;24.80;;
75135;SDS011;63707;52.212;9.540;2023-11-21T02:52:57;81.75;;;25.40;;
75135;SDS011;63707;52.212;9.540;2023-11-21T02:55:25;76.95;;;25.65;;
75135;SDS011;63707;52.212;9.540;2023-11-21T02:57:52;76.93;;;25.55;;
75135;SDS011;63707;52.212;9.540;2023-11-21T03:00:17;90.57;;;26.27;;
75135;SDS011;63707;52.212;9.540;2023-11-21T03:02:43;78.25;;;25.67;;
75135;SDS011;63707;52.212;9.540;2023-11-21T03:05:09;72.57;;;25.73;;
75135;SDS011;63707;52.212;9.540;2023-11-21T03:07:35;79.78;;;26.58;;
75135;SDS011;63707;52.212;9.540;2023-11-21T03:10:01;69.47;;;23.77;;
75135;SDS011;63707;52.212;9.540;2023-11-21T03:12:27;74.80;;;24.27;;
75135;SDS011;63707;52.212;9.540;2023-11-21T03:14:53;79.38;;;26.08;;
75135;SDS011;63707;52.212;9.540;2023-11-21T03:17:19;73.50;;;24.52;;
75135;SDS011;63707;52.212;9.540;2023-11-21T03:19:44;78.32;;;25.20;;
75135;SDS011;63707;52.212;9.540;2023-11-21T03:22:10;79.35;;;25.58;;
75135;SDS011;63707;52.212;9.540;2023-11-21T03:24:36;86.60;;;26.60;;
75135;SDS011;63707;52.212;9.540;2023-11-21T03:27:03;83.10;;;26.00;;
75135;SDS011;63707;52.212;9.540;2023-11-21T03:29:29;78.63;;;24.70;;
75135;SDS011;63707;52.212;9.540;2023-11-21T03:31:55;84.90;;;26.80;;
75135;SDS011;63707;52.212;9.540;2023-11-21T03:34:23;71.55;;;26.48;;
75135;SDS011;63707;52.212;9.540;2023-11-21T03:36:49;76.55;;;26.05;;
75135;SDS011;63707;52.212;9.540;2023-11-21T03:39:15;73.03;;;24.27;;
75135;SDS011;63707;52.212;9.540;2023-11-21T03:41:40;82.55;;;26.00;;
75135;SDS011;63707;52.212;9.540;2023-11-21T03:44:06;82.32;;;25.15;;
75135;SDS011;63707;52.212;9.540;2023-11-21T03:46:31;75.07;;;25.17;;
75135;SDS011;63707;52.212;9.540;2023-11-21T03:48:58;75.00;;;25.17;;
75135;SDS011;63707;52.212;9.540;2023-11-21T03:51:24;87.78;;;27.20;;
75135;SDS011;63707;52.212;9.540;2023-11-21T03:53:49;84.03;;;25.85;;
75135;SDS011;63707;52.212;9.540;2023-11-21T03:56:15;78.25;;;25.40;;
75135;SDS011;63707;52.212;9.540;2023-11-21T03:58:40;88.57;;;24.90;;
75135;SDS011;63707;52.212;9.540;2023-11-21T04:01:06;84.88;;;24.77;;
75135;SDS011;63707;52.212;9.540;2023-11-21T04:03:31;78.60;;;26.02;;
75135;SDS011;63707;52.212;9.540;2023-11-21T04:05:58;85.90;;;26.10;;
75135;SDS011;63707;52.212;9.540;2023-11-21T04:08:24;83.57;;;26.40;;
75135;SDS011;63707;52.212;9.540;2023-11-21T04:10:51;89.88;;;25.13;;
75135;SDS011;63707;52.212;9.540;2023-11-21T04:13:18;94.50;;;27.83;;
75135;SDS011;63707;52.212;9.540;2023-11-21T04:15:44;104.97;;;28.08;;
75135;SDS011;63707;52.212;9.540;2023-11-21T04:18:09;84.35;;;26.70;;
75135;SDS011;63707;52.212;9.540;2023-11-21T04:20:35;82.82;;;25.83;;
75135;SDS011;63707;52.212;9.540;2023-11-21T04:23:02;91.53;;;27.27;;
75135;SDS011;63707;52.212;9.540;2023-11-21T04:25:28;92.22;;;27.63;;
75135;SDS011;63707;52.212;9.540;2023-11-21T04:27:53;89.60;;;25.50;;
75135;SDS011;63707;52.212;9.540;2023-11-21T04:30:19;95.95;;;26.98;;
75135;SDS011;63707;52.212;9.540;2023-11-21T04:32:45;98.30;;;27.15;;
75135;SDS011;63707;52.212;9.540;2023-11-21T04:35:11;94.55;;;27.05;;
75135;SDS011;63707;52.212;9.540;2023-11-21T04:37:37;84.57;;;25.67;;
75135;SDS011;63707;52.212;9.540;2023-11-21T04:40:04;103.65;;;28.75;;
75135;SDS011;63707;52.212;9.540;2023-11-21T04:42:34;89.53;;;27.55;;
75135;SDS011;63707;52.212;9.540;2023-11-21T04:45:00;99.15;;;27.27;;
75135;SDS011;63707;52.212;9.540;2023-11-21T04:47:26;106.28;;;28.13;;
75135;SDS011;63707;52.212;9.540;2023-11-21T04:49:52;107.03;;;28.02;;
75135;SDS011;63707;52.212;9.540;2023-11-21T04:52:17;101.43;;;27.55;;
75135;SDS011;63707;52.212;9.540;2023-11-21T04:54:43;109.07;;;29.33;;
75135;SDS011;63707;52.212;9.540;2023-11-21T04:57:09;101.57;;;28.52;;
75135;SDS011;63707;52.212;9.540;2023-11-21T04:59:35;120.00;;;29.60;;
75135;SDS011;63707;52.212;9.540;2023-11-21T05:02:01;107.00;;;29.40;;
75135;SDS011;63707;52.212;9.540;2023-11-21T05:04:26;102.70;;;28.20;;
75135;SDS011;63707;52.212;9.540;2023-11-21T05:06:52;100.95;;;27.33;;
75135;SDS011;63707;52.212;9.540;2023-11-21T05:09:17;104.95;;;28.42;;
75135;SDS011;63707;52.212;9.540;2023-11-21T05:11:43;99.43;;;27.23;;
75135;SDS011;63707;52.212;9.540;2023-11-21T05:14:10;95.07;;;27.92;;
75135;SDS011;63707;52.212;9.540;2023-11-21T05:16:35;100.93;;;26.23;;
75135;SDS011;63707;52.212;9.540;2023-11-21T05:19:01;100.93;;;26.42;;
75135;SDS011;63707;52.212;9.540;2023-11-21T05:21:27;99.15;;;25.95;;
75135;SDS011;63707;52.212;9.540;2023-11-21T05:23:53;96.57;;;25.35;;
75135;SDS011;63707;52.212;9.540;2023-11-21T05:26:18;100.63;;;24.92;;
75135;SDS011;63707;52.212;9.540;2023-11-21T05:28:44;85.30;;;25.10;;
75135;SDS011;63707;52.212;9.540;2023-11-21T05:31:11;100.38;;;26.45;;
75135;SDS011;63707;52.212;9.540;2023-11-21T05:33:36;100.03;;;26.60;;
75135;SDS011;63707;52.212;9.540;2023-11-21T05:36:02;90.47;;;24.90;;
75135;SDS011;63707;52.212;9.540;2023-11-21T05:38:27;83.80;;;22.83;;
75135;SDS011;63707;52.212;9.540;2023-11-21T05:40:53;83.93;;;22.80;;
75135;SDS011;63707;52.212;9.540;2023-11-21T05:43:19;78.80;;;21.15;;
75135;SDS011;63707;52.212;9.540;2023-11-21T05:45:45;67.72;;;20.63;;
75135;SDS011;63707;52.212;9.540;2023-11-21T05:48:11;66.80;;;19.80;;
75135;SDS011;63707;52.212;9.540;2023-11-21T05:50:37;84.40;;;21.45;;
75135;SDS011;63707;52.212;9.540;2023-11-21T05:53:03;88.72;;;23.20;;
75135;SDS011;63707;52.212;9.540;2023-11-21T05:55:28;81.88;;;22.58;;
75135;SDS011;63707;52.212;9.540;2023-11-21T05:57:54;76.88;;;20.38;;
75135;SDS011;63707;52.212;9.540;2023-11-21T06:00:20;74.88;;;20.65;;
75135;SDS011;63707;52.212;9.540;2023-11-21T06:02:50;64.30;;;19.52;;
75135;SDS011;63707;52.212;9.540;2023-11-21T06:05:19;61.03;;;18.40;;
75135;SDS011;63707;52.212;9.540;2023-11-21T06:07:48;58.10;;;18.08;;
75135;SDS011;63707;52.212;9.540;2023-11-21T06:10:13;58.35;;;17.23;;
75135;SDS011;63707;52.212;9.540;2023-11-21T06:12:39;51.13;;;16.88;;
75135;SDS011;63707;52.212;9.540;2023-11-21T06:15:08;57.00;;;16.75;;
75135;SDS011;63707;52.212;9.540;2023-11-21T06:17:37;53.70;;;14.73;;
75135;SDS011;63707;52.212;9.540;2023-11-21T06:20:04;49.72;;;14.80;;
75135;SDS011;63707;52.212;9.540;2023-11-21T06:22:35;58.15;;;13.68;;
75135;SDS011;63707;52.212;9.540;2023-11-21T06:25:01;52.42;;;14.20;;
75135;SDS011;63707;52.212;9.540;2023-11-21T06:27:28;51.67;;;12.88;;
75135;SDS011;63707;52.212;9.540;2023-11-21T06:29:54;43.95;;;13.23;;
75135;SDS011;63707;52.212;9.540;2023-11-21T06:32:20;60.67;;;17.48;;
75135;SDS011;63707;52.212;9.540;2023-11-21T06:34:47;71.13;;;18.10;;
75135;SDS011;63707;52.212;9.540;2023-11-21T06:37:13;78.68;;;19.23;;
75135;SDS011;63707;52.212;9.540;2023-11-21T06:39:39;88.13;;;19.98;;
75135;SDS011;63707;52.212;9.540;2023-11-21T06:42:05;69.82;;;18.17;;
75135;SDS011;63707;52.212;9.540;2023-11-21T06:44:31;72.93;;;17.40;;
75135;SDS011;63707;52.212;9.540;2023-11-21T06:46:58;73.63;;;18.67;;
75135;SDS011;63707;52.212;9.540;2023-11-21T06:49:24;90.97;;;19.98;;
75135;SDS011;63707;52.212;9.540;2023-11-21T06:51:49;80.82;;;17.85;;
75135;SDS011;63707;52.212;9.540;2023-11-21T06:54:15;86.85;;;18.83;;
75135;SDS011;63707;52.212;9.540;2023-11-21T06:56:42;91.25;;;19.13;;
75135;SDS011;63707;52.212;9.540;2023-11-21T06:59:07;75.78;;;17.77;;
75135;SDS011;63707;52.212;9.540;2023-11-21T07:01:34;101.05;;;19.58;;
75135;SDS011;63707;52.212;9.540;2023-11-21T07:04:04;87.22;;;18.35;;
75135;SDS011;63707;52.212;9.540;2023-11-21T07:06:30;91.18;;;18.25;;
75135;SDS011;63707;52.212;9.540;2023-11-21T07:08:55;75.25;;;18.08;;
75135;SDS011;63707;52.212;9.540;2023-11-21T07:11:21;97.60;;;19.33;;
75135;SDS011;63707;52.212;9.540;2023-11-21T07:13:47;95.47;;;21.25;;
75135;SDS011;63707;52.212;9.540;2023-11-21T07:16:13;108.78;;;23.52;;
75135;SDS011;63707;52.212;9.540;2023-11-21T07:18:40;107.13;;;23.48;;
75135;SDS011;63707;52.212;9.540;2023-11-21T07:21:05;109.78;;;25.15;;
75135;SDS011;63707;52.212;9.540;2023-11-21T07:23:31;122.45;;;21.85;;
75135;SDS011;63707;52.212;9.540;2023-11-21T07:25:57;91.30;;;20.23;;
75135;SDS011;63707;52.212;9.540;2023-11-21T07:28:22;118.15;;;21.80;;
75135;SDS011;63707;52.212;9.540;2023-11-21T07:30:52;124.30;;;22.15;;
75135;SDS011;63707;52.212;9.540;2023-11-21T07:33:17;103.30;;;21.63;;
75135;SDS011;63707;52.212;9.540;2023-11-21T07:35:43;111.00;;;23.70;;
75135;SDS011;63707;52.212;9.540;2023-11-21T07:38:08;104.22;;;23.90;;
75135;SDS011;63707;52.212;9.540;2023-11-21T07:40:34;86.00;;;21.38;;
75135;SDS011;63707;52.212;9.540;2023-11-21T07:42:59;102.82;;;23.05;;
75135;SDS011;63707;52.212;9.540;2023-11-21T07:45:25;98.97;;;21.83;;
75135;SDS011;63707;52.212;9.540;2023-11-21T07:47:54;90.13;;;21.65;;
75135;SDS011;63707;52.212;9.540;2023-11-21T07:50:20;84.65;;;19.42;;
75135;SDS011;63707;52.212;9.540;2023-11-21T07:52:46;77.75;;;18.45;;
75135;SDS011;63707;52.212;9.540;2023-11-21T07:55:12;68.10;;;16.48;;
75135;SDS011;63707;52.212;9.540;2023-11-21T07:57:39;23.15;;;7.25;;
75135;SDS011;63707;52.212;9.540;2023-11-21T08:00:05;9.45;;;3.60;;
75135;SDS011;63707;52.212;9.540;2023-11-21T08:02:34;9.40;;;4.28;;
75135;SDS011;63707;52.212;9.540;2023-11-21T08:05:01;15.63;;;6.75;;
75135;SDS011;63707;52.212;9.540;2023-11-21T08:07:26;20.80;;;8.20;;
75135;SDS011;63707;52.212;9.540;2023-11-21T08:09:52;20.27;;;8.20;;
75135;SDS011;63707;52.212;9.540;2023-11-21T08:12:17;13.00;;;5.85;;
75135;SDS011;63707;52.212;9.540;2023-11-21T08:14:45;12.13;;;5.88;;
75135;SDS011;63707;52.212;9.540;2023-11-21T08:17:11;14.27;;;6.25;;
75135;SDS011;63707;52.212;9.540;2023-11-21T08:19:36;14.57;;;5.72;;
75135;SDS011;63707;52.212;9.540;2023-11-21T08:22:03;12.10;;;5.80;;
75135;SDS011;63707;52.212;9.540;2023-11-21T08:24:29;11.23;;;5.32;;
75135;SDS011;63707;52.212;9.540;2023-11-21T08:26:55;7.43;;;3.72;;
75135;SDS011;63707;52.212;9.540;2023-11-21T08:29:21;8.27;;;3.92;;
75135;SDS011;63707;52.212;9.540;2023-11-21T08:31:48;6.43;;;2.92;;
75135;SDS011;63707;52.212;9.540;2023-11-21T08:34:13;5.20;;;2.47;;
75135;SDS011;63707;52.212;9.540;2023-11-21T08:36:42;4.18;;;2.20;;
75135;SDS011;63707;52.212;9.540;2023-11-21T08:39:09;4.13;;;2.17;;
75135;SDS011;63707;52.212;9.540;2023-11-21T08:41:38;3.88;;;2.08;;
75135;SDS011;63707;52.212;9.540;2023-11-21T08:44:04;5.85;;;2.38;;
75135;SDS011;63707;52.212;9.540;2023-11-21T08:46:32;5.88;;;3.00;;
75135;SDS011;63707;52.212;9.540;2023-11-21T08:48:58;7.40;;;3.55;;
75135;SDS011;63707;52.212;9.540;2023-11-21T08:51:24;7.80;;;3.97;;
75135;SDS011;63707;52.212;9.540;2023-11-21T08:53:50;8.15;;;4.07;;
75135;SDS011;63707;52.212;9.540;2023-11-21T08:56:16;8.68;;;4.50;;
75135;SDS011;63707;52.212;9.540;2023-11-21T08:58:45;9.82;;;4.40;;
75135;SDS011;63707;52.212;9.540;2023-11-21T09:01:11;11.27;;;5.10;;
75135;SDS011;63707;52.212;9.540;2023-11-21T09:03:37;11.27;;;5.20;;
75135;SDS011;63707;52.212;9.540;2023-11-21T09:06:02;10.55;;;5.18;;
75135;SDS011;63707;52.212;9.540;2023-11-21T09:08:29;9.63;;;4.93;;
75135;SDS011;63707;52.212;9.540;2023-11-21T09:10:55;8.07;;;4.20;;
75135;SDS011;63707;52.212;9.540;2023-11-21T09:13:22;9.27;;;5.03;;
75135;SDS011;63707;52.212;9.540;2023-11-21T09:15:49;15.43;;;5.30;;
75135;SDS011;63707;52.212;9.540;2023-11-21T09:18:15;12.70;;;5.22;;
75135;SDS011;63707;52.212;9.540;2023-11-21T09:20:40;11.63;;;4.97;;
75135;SDS011;63707;52.212;9.540;2023-11-21T09:23:06;9.25;;;4.75;;
75135;SDS011;63707;52.212;9.540;2023-11-21T09:25:32;10.95;;;5.00;;
75135;SDS011;63707;52.212;9.540;2023-11-21T09:27:57;10.23;;;5.15;;
75135;SDS011;63707;52.212;9.540;2023-11-21T09:30:24;10.40;;;5.80;;
75135;SDS011;63707;52.212;9.540;2023-11-21T09:32:50;15.13;;;8.25;;
75135;SDS011;63707;52.212;9.540;2023-11-21T09:35:15;18.27;;;8.70;;
75135;SDS011;63707;52.212;9.540;2023-11-21T09:37:42;20.92;;;10.30;;
75135;SDS011;63707;52.212;9.540;2023-11-21T09:40:09;23.98;;;11.50;;
75135;SDS011;63707;52.212;9.540;2023-11-21T09:42:39;22.92;;;11.95;;
75135;SDS011;63707;52.212;9.540;2023-11-21T09:45:09;25.40;;;12.20;;
75135;SDS011;63707;52.212;9.540;2023-11-21T09:47:45;25.35;;;11.25;;
75135;SDS011;63707;52.212;9.540;2023-11-21T09:50:11;22.85;;;9.48;;
75135;SDS011;63707;52.212;9.540;2023-11-21T09:52:51;19.67;;;7.85;;
75135;SDS011;63707;52.212;9.540;2023-11-21T09:55:22;15.88;;;7.53;;
75135;SDS011;63707;52.212;9.540;2023-11-21T09:57:51;20.80;;;9.27;;
75135;SDS011;63707;52.212;9.540;2023-11-21T10:00:18;29.17;;;10.73;;
75135;SDS011;63707;52.212;9.540;2023-11-21T10:02:47;31.00;;;12.35;;
75135;SDS011;63707;52.212;9.540;2023-11-21T10:05:14;27.88;;;12.07;;
75135;SDS011;63707;52.212;9.540;2023-11-21T10:07:42;29.60;;;12.40;;
75135;SDS011;63707;52.212;9.540;2023-11-21T10:10:09;28.80;;;12.50;;
75135;SDS011;63707;52.212;9.540;2023-11-21T10:12:35;33.53;;;14.50;;
75135;SDS011;63707;52.212;9.540;2023-11-21T10:15:02;28.40;;;12.90;;
75135;SDS011;63707;52.212;9.540;2023-11-21T10:17:31;33.40;;;13.48;;
75135;SDS011;63707;52.212;9.540;2023-11-21T10:20:06;25.37;;;10.57;;
75135;SDS011;63707;52.212;9.540;2023-11-21T10:22:38;28.33;;;13.95;;
75135;SDS011;63707;52.212;9.540;2023-11-21T10:25:06;23.85;;;11.70;;
75135;SDS011;63707;52.212;9.540;2023-11-21T10:27:33;30.65;;;12.88;;
75135;SDS011;63707;52.212;9.540;2023-11-21T10:30:00;26.13;;;12.07;;
75135;SDS011;63707;52.212;9.540;2023-11-21T10:32:27;23.98;;;11.38;;
75135;SDS011;63707;52.212;9.540;2023-11-21T10:34:56;25.35;;;11.80;;
75135;SDS011;63707;52.212;9.540;2023-11-21T10:37:24;24.35;;;11.32;;
75135;SDS011;63707;52.212;9.540;2023-11-21T10:39:50;24.90;;;11.45;;
75135;SDS011;63707;52.212;9.540;2023-11-21T10:42:15;21.58;;;11.23;;
75135;SDS011;63707;52.212;9.540;2023-11-21T10:44:43;22.38;;;10.80;;
75135;SDS011;63707;52.212;9.540;2023-11-21T10:47:10;22.33;;;10.48;;
75135;SDS011;63707;52.212;9.540;2023-11-21T10:49:37;20.60;;;10.15;;
75135;SDS011;63707;52.212;9.540;2023-11-21T10:52:03;17.75;;;8.98;;
75135;SDS011;63707;52.212;9.540;2023-11-21T10:54:30;19.58;;;9.20;;
75135;SDS011;63707;52.212;9.540;2023-11-21T10:56:56;18.85;;;9.15;;
75135;SDS011;63707;52.212;9.540;2023-11-21T10:59:24;18.15;;;8.82;;
75135;SDS011;63707;52.212;9.540;2023-11-21T11:01:53;19.15;;;9.05;;
75135;SDS011;63707;52.212;9.540;2023-11-21T11:04:22;17.58;;;9.32;;
75135;SDS011;63707;52.212;9.540;2023-11-21T11:06:51;17.15;;;9.20;;
75135;SDS011;63707;52.212;9.540;2023-11-21T11:09:19;20.27;;;8.82;;
75135;SDS011;63707;52.212;9.540;2023-11-21T11:11:47;21.80;;;10.88;;
75135;SDS011;63707;52.212;9.540;2023-11-21T11:14:14;25.38;;;10.65;;
75135;SDS011;63707;52.212;9.540;2023-11-21T11:16:40;19.83;;;9.75;;
75135;SDS011;63707;52.212;9.540;2023-11-21T11:19:08;21.23;;;10.70;;
75135;SDS011;63707;52.212;9.540;2023-11-21T11:21:37;19.08;;;10.15;;
75135;SDS011;63707;52.212;9.540;2023-11-21T11:24:13;19.42;;;9.82;;
75135;SDS011;63707;52.212;9.540;2023-11-21T11:26:55;20.80;;;9.48;;
75135;SDS011;63707;52.212;9.540;2023-11-21T11:29:29;19.80;;;10.70;;
75135;SDS011;63707;52.212;9.540;2023-11-21T11:32:03;19.77;;;10.73;;
75135;SDS011;63707;52.212;9.540;2023-11-21T11:37:04;20.70;;;10.50;;
75135;SDS011;63707;52.212;9.540;2023-11-21T11:39:35;18.52;;;9.52;;
75135;SDS011;63707;52.212;9.540;2023-11-21T11:42:03;18.05;;;9.07;;
75135;SDS011;63707;52.212;9.540;2023-11-21T11:44:50;19.75;;;7.75;;
75135;SDS011;63707;52.212;9.540;2023-11-21T11:47:19;16.30;;;8.05;;
75135;SDS011;63707;52.212;9.540;2023-11-21T11:49:56;15.00;;;7.40;;
75135;SDS011;63707;52.212;9.540;2023-11-21T11:52:40;14.93;;;7.20;;
75135;SDS011;63707;52.212;9.540;2023-11-21T11:55:06;15.45;;;7.13;;
75135;SDS011;63707;52.212;9.540;2023-11-21T11:57:36;11.45;;;6.38;;
75135;SDS011;63707;52.212;9.540;2023-11-21T12:00:07;12.32;;;7.50;;
75135;SDS011;63707;52.212;9.540;2023-11-21T12:02:36;12.10;;;7.13;;
75135;SDS011;63707;52.212;9.540;2023-11-21T12:05:06;10.70;;;6.20;;
75135;SDS011;63707;52.212;9.540;2023-11-21T12:07:39;14.95;;;7.57;;
75135;SDS011;63707;52.212;9.540;2023-11-21T12:10:08;14.18;;;7.03;;
75135;SDS011;63707;52.212;9.540;2023-11-21T12:12:41;11.35;;;6.90;;
75135;SDS011;63707;52.212;9.540;2023-11-21T12:15:07;11.63;;;6.70;;
75135;SDS011;63707;52.212;9.540;2023-11-21T12:17:33;12.95;;;6.90;;
75135;SDS011;63707;52.212;9.540;2023-11-21T12:20:01;13.88;;;7.30;;
75135;SDS011;63707;52.212;9.540;2023-11-21T12:22:29;14.50;;;7.43;;
75135;SDS011;63707;52.212;9.540;2023-11-21T12:24:55;14.57;;;7.88;;
75135;SDS011;63707;52.212;9.540;2023-11-21T12:27:21;12.20;;;7.18;;
75135;SDS011;63707;52.212;9.540;2023-11-21T12:29:48;13.10;;;6.85;;
75135;SDS011;63707;52.212;9.540;2023-11-21T12:32:13;13.13;;;7.32;;
75135;SDS011;63707;52.212;9.540;2023-11-21T12:34:43;12.88;;;7.15;;
75135;SDS011;63707;52.212;9.540;2023-11-21T12:37:08;13.02;;;6.68;;
75135;SDS011;63707;52.212;9.540;2023-11-21T12:39:35;11.05;;;6.47;;
75135;SDS011;63707;52.212;9.540;2023-11-21T12:42:01;12.30;;;6.57;;
75135;SDS011;63707;52.212;9.540;2023-11-21T12:44:27;11.90;;;6.32;;
75135;SDS011;63707;52.212;9.540;2023-11-21T12:46:54;12.30;;;7.10;;
75135;SDS011;63707;52.212;9.540;2023-11-21T12:49:23;12.70;;;6.57;;
75135;SDS011;63707;52.212;9.540;2023-11-21T12:51:49;16.30;;;9.65;;
75135;SDS011;63707;52.212;9.540;2023-11-21T12:54:15;35.28;;;18.35;;
75135;SDS011;63707;52.212;9.540;2023-11-21T12:56:41;14.38;;;7.72;;
75135;SDS011;63707;52.212;9.540;2023-11-21T12:59:06;12.48;;;7.25;;
75135;SDS011;63707;52.212;9.540;2023-11-21T13:01:32;12.02;;;6.95;;
75135;SDS011;63707;52.212;9.540;2023-11-21T13:04:01;19.10;;;7.63;;
75135;SDS011;63707;52.212;9.540;2023-11-21T13:06:27;11.90;;;6.50;;
75135;SDS011;63707;52.212;9.540;2023-11-21T13:08:55;12.13;;;6.55;;
75135;SDS011;63707;52.212;9.540;2023-11-21T13:11:22;11.27;;;6.75;;
75135;SDS011;63707;52.212;9.540;2023-11-21T13:13:47;10.48;;;6.28;;
75135;SDS011;63707;52.212;9.540;2023-11-21T13:16:18;11.52;;;6.15;;
75135;SDS011;63707;52.212;9.540;2023-11-21T13:18:45;11.77;;;6.78;;
75135;SDS011;63707;52.212;9.540;2023-11-21T13:21:12;14.07;;;7.75;;
75135;SDS011;63707;52.212;9.540;2023-11-21T13:23:39;12.55;;;6.80;;
75135;SDS011;63707;52.212;9.540;2023-11-21T13:26:06;14.13;;;8.15;;
75135;SDS011;63707;52.212;9.540;2023-11-21T13:28:34;12.27;;;6.63;;
75135;SDS011;63707;52.212;9.540;2023-11-21T13:31:01;10.07;;;6.03;;
75135;SDS011;63707;52.212;9.540;2023-11-21T13:33:46;12.18;;;7.30;;
75135;SDS011;63707;52.212;9.540;2023-11-21T13:36:17;12.50;;;6.32;;
75135;SDS011;63707;52.212;9.540;2023-11-21T13:38:47;9.98;;;6.18;;
75135;SDS011;63707;52.212;9.540;2023-11-21T13:41:13;10.40;;;6.18;;
75135;SDS011;63707;52.212;9.540;2023-11-21T13:43:39;11.30;;;6.63;;
75135;SDS011;63707;52.212;9.540;2023-11-21T13:46:09;11.10;;;6.05;;
75135;SDS011;63707;52.212;9.540;2023-11-21T13:48:45;10.00;;;6.18;;
75135;SDS011;63707;52.212;9.540;2023-11-21T13:51:21;10.82;;;5.95;;
75135;SDS011;63707;52.212;9.540;2023-11-21T13:53:55;11.73;;;5.82;;
75135;SDS011;63707;52.212;9.540;2023-11-21T13:56:21;8.68;;;5.53;;
75135;SDS011;63707;52.212;9.540;2023-11-21T13:58:49;9.15;;;5.55;;
75135;SDS011;63707;52.212;9.540;2023-11-21T14:01:21;10.95;;;6.30;;
75135;SDS011;63707;52.212;9.540;2023-11-21T14:03:56;12.85;;;6.20;;
75135;SDS011;63707;52.212;9.540;2023-11-21T14:06:29;13.23;;;7.38;;
75135;SDS011;63707;52.212;9.540;2023-11-21T14:09:05;14.70;;;8.07;;
75135;SDS011;63707;52.212;9.540;2023-11-21T14:11:32;14.32;;;7.63;;
75135;SDS011;63707;52.212;9.540;2023-11-21T14:13:59;17.10;;;8.70;;
75135;SDS011;63707;52.212;9.540;2023-11-21T14:16:25;14.80;;;7.95;;
75135;SDS011;63707;52.212;9.540;2023-11-21T14:18:50;12.60;;;7.47;;
75135;SDS011;63707;52.212;9.540;2023-11-21T14:21:26;13.02;;;7.45;;
75135;SDS011;63707;52.212;9.540;2023-11-21T14:23:53;15.40;;;8.05;;
75135;SDS011;63707;52.212;9.540;2023-11-21T14:26:21;15.60;;;8.27;;
75135;SDS011;63707;52.212;9.540;2023-11-21T14:28:48;13.60;;;7.72;;